Time;durP1;ratioP1;P1;durP2;ratioP2;P2;SDS_P1;SDS_P2;PMS_P1;PMS_P2;Temp;Humidity;BMP_temperature;BMP_pressure;BME280_temperature;BME280_humidity;BME280_pressure;Samples;Min_cycle;Max_cycle;Signal;HPM_P1;HPM_P2
2022/08/09 00:01:33;;;;;;;5.82;5.15;;;;;;;;;;5047276;28;20530;-72
2022/08/09 00:03:59;;;;;;;6.40;5.80;;;;;;;;;;5047873;28;20028;-72
2022/08/09 00:06:24;;;;;;;5.70;5.03;;;;;;;;;;5050852;28;20024;-72
2022/08/09 00:08:50;;;;;;;7.25;5.35;;;;;;;;;;5025494;28;20074;-72
2022/08/09 00:11:15;;;;;;;5.47;4.93;;;;;;;;;;5048119;28;20072;-73
2022/08/09 00:13:41;;;;;;;6.03;5.53;;;;;;;;;;5051535;28;20360;-73
2022/08/09 00:16:06;;;;;;;6.05;5.45;;;;;;;;;;5044982;28;20021;-73
2022/08/09 00:18:32;;;;;;;6.30;5.70;;;;;;;;;;5041809;28;20462;-73
2022/08/09 00:20:58;;;;;;;7.20;5.57;;;;;;;;;;5044106;28;20032;-73
2022/08/09 00:23:23;;;;;;;7.40;5.75;;;;;;;;;;5041212;28;20025;-73
2022/08/09 00:25:49;;;;;;;6.30;5.80;;;;;;;;;;5041342;28;20033;-73
2022/08/09 00:28:14;;;;;;;6.75;6.03;;;;;;;;;;5045375;28;20028;-73
2022/08/09 00:30:39;;;;;;;5.75;5.22;;;;;;;;;;5045010;28;20431;-75
2022/08/09 00:33:05;;;;;;;5.60;5.10;;;;;;;;;;5046731;28;20086;-74
2022/08/09 00:35:30;;;;;;;6.28;5.30;;;;;;;;;;5048902;28;20081;-72
2022/08/09 00:37:55;;;;;;;6.20;5.25;;;;;;;;;;5046571;28;20183;-73
2022/08/09 00:40:21;;;;;;;10.85;5.50;;;;;;;;;;5046174;28;20049;-73
2022/08/09 00:42:46;;;;;;;6.20;5.60;;;;;;;;;;5046556;28;20048;-73
2022/08/09 00:45:11;;;;;;;7.07;5.70;;;;;;;;;;5046086;28;20037;-72
2022/08/09 00:47:37;;;;;;;6.45;5.65;;;;;;;;;;5048409;28;20030;-71
2022/08/09 00:50:02;;;;;;;5.85;5.25;;;;;;;;;;5056513;28;20020;-74
2022/08/09 00:52:29;;;;;;;5.57;5.03;;;;;;;;;;5054274;28;20020;-73
2022/08/09 00:54:55;;;;;;;14.32;5.50;;;;;;;;;;5046258;28;20056;-77
2022/08/09 00:57:21;;;;;;;5.97;5.35;;;;;;;;;;5050856;28;20016;-72
2022/08/09 00:59:46;;;;;;;6.32;5.63;;;;;;;;;;5049077;28;20507;-72
2022/08/09 01:02:13;;;;;;;7.90;6.60;;;;;;;;;;5051636;28;20054;-72
2022/08/09 01:04:48;;;;;;;11.68;6.07;;;;;;;;;;5037143;28;20325;-72
2022/08/09 01:07:27;;;;;;;5.75;5.25;;;;;;;;;;5050550;28;20151;-72
2022/08/09 01:09:58;;;;;;;7.63;5.47;;;;;;;;;;5045378;28;20374;-73
2022/08/09 01:12:49;;;;;;;7.38;6.10;;;;;;;;;;5054648;28;20397;-74
2022/08/09 01:15:20;;;;;;;6.25;5.70;;;;;;;;;;5054966;28;20043;-76
2022/08/09 01:17:58;;;;;;;6.47;5.03;;;;;;;;;;5049024;28;20032;-72
2022/08/09 01:20:26;;;;;;;5.70;5.20;;;;;;;;;;5051540;28;20029;-73
2022/08/09 01:23:24;;;;;;;5.68;5.18;;;;;;;;;;5056567;28;21498;-74
2022/08/09 01:26:10;;;;;;;8.43;5.72;;;;;;;;;;5027580;28;20198;-74
2022/08/09 01:28:37;;;;;;;6.65;5.57;;;;;;;;;;5022181;28;20043;-74
2022/08/09 01:31:03;;;;;;;7.10;5.47;;;;;;;;;;5025065;28;20025;-72
2022/08/09 01:33:33;;;;;;;6.57;5.57;;;;;;;;;;5028330;28;20029;-72
2022/08/09 01:36:02;;;;;;;5.70;5.20;;;;;;;;;;5027587;28;20115;-71
2022/08/09 01:38:30;;;;;;;5.97;5.38;;;;;;;;;;5027235;28;20377;-72
2022/08/09 01:40:58;;;;;;;6.63;6.03;;;;;;;;;;5028798;28;20057;-72
2022/08/09 01:43:23;;;;;;;5.80;5.30;;;;;;;;;;5024968;28;20057;-71
2022/08/09 01:45:51;;;;;;;6.13;5.63;;;;;;;;;;5026760;28;20073;-72
2022/08/09 01:48:17;;;;;;;5.88;5.38;;;;;;;;;;5028973;28;20106;-75
2022/08/09 01:50:48;;;;;;;5.43;4.93;;;;;;;;;;5026032;28;20364;-73
2022/08/09 01:53:14;;;;;;;6.95;6.38;;;;;;;;;;5024653;28;20025;-74
2022/08/09 01:55:40;;;;;;;6.20;5.60;;;;;;;;;;5027008;28;20041;-72
2022/08/09 01:58:06;;;;;;;14.82;6.13;;;;;;;;;;5025974;28;20033;-73
2022/08/09 02:00:32;;;;;;;7.00;5.88;;;;;;;;;;5027125;28;20034;-73
2022/08/09 02:02:58;;;;;;;6.10;5.55;;;;;;;;;;5033879;28;20031;-74
2022/08/09 02:05:23;;;;;;;6.85;5.68;;;;;;;;;;5031042;28;20037;-72
2022/08/09 02:07:51;;;;;;;6.05;5.55;;;;;;;;;;5035424;28;20420;-72
2022/08/09 02:10:19;;;;;;;9.52;5.88;;;;;;;;;;5026984;28;20497;-72
2022/08/09 02:12:45;;;;;;;10.07;5.45;;;;;;;;;;5031503;28;20029;-72
2022/08/09 02:15:11;;;;;;;6.32;5.72;;;;;;;;;;5035323;28;20462;-73
2022/08/09 02:17:37;;;;;;;6.22;5.65;;;;;;;;;;5033124;28;20033;-73
2022/08/09 02:20:03;;;;;;;10.63;6.50;;;;;;;;;;5034398;28;20436;-73
2022/08/09 02:22:36;;;;;;;6.75;6.05;;;;;;;;;;5032170;28;20032;-71
2022/08/09 02:25:03;;;;;;;6.05;5.45;;;;;;;;;;5034182;28;20033;-71
2022/08/09 02:27:29;;;;;;;6.88;5.78;;;;;;;;;;5030598;28;20025;-72
2022/08/09 02:29:56;;;;;;;6.85;6.15;;;;;;;;;;5032312;28;20064;-72
2022/08/09 02:32:22;;;;;;;6.35;5.75;;;;;;;;;;5033133;28;20457;-72
2022/08/09 02:34:49;;;;;;;8.05;6.25;;;;;;;;;;5029414;28;20035;-72
2022/08/09 02:37:16;;;;;;;6.13;5.53;;;;;;;;;;5027811;28;20411;-73
2022/08/09 02:39:48;;;;;;;6.30;5.60;;;;;;;;;;5033120;28;20032;-72
2022/08/09 02:42:16;;;;;;;6.85;5.97;;;;;;;;;;5050212;28;20049;-72
2022/08/09 02:44:43;;;;;;;6.25;5.70;;;;;;;;;;5055619;28;20036;-72
2022/08/09 02:47:10;;;;;;;6.65;6.05;;;;;;;;;;5052072;28;20346;-73
2022/08/09 02:49:39;;;;;;;7.25;6.38;;;;;;;;;;5049904;28;20032;-72
2022/08/09 02:52:06;;;;;;;6.35;5.25;;;;;;;;;;5048707;28;20107;-72
2022/08/09 02:54:32;;;;;;;6.47;5.95;;;;;;;;;;5052785;28;20498;-73
2022/08/09 02:56:58;;;;;;;7.80;5.35;;;;;;;;;;5046501;28;20033;-75
2022/08/09 02:59:24;;;;;;;9.90;6.13;;;;;;;;;;5052714;28;20056;-75
2022/08/09 03:01:50;;;;;;;7.15;6.55;;;;;;;;;;5052209;28;20104;-72
2022/08/09 03:04:16;;;;;;;6.22;5.72;;;;;;;;;;5046310;28;20144;-72
2022/08/09 03:06:43;;;;;;;6.78;6.18;;;;;;;;;;5053174;28;20048;-73
2022/08/09 03:09:09;;;;;;;5.70;5.18;;;;;;;;;;5051851;28;20081;-75
2022/08/09 03:11:34;;;;;;;6.28;5.78;;;;;;;;;;5051991;28;20021;-72
2022/08/09 03:14:00;;;;;;;7.10;5.82;;;;;;;;;;5053716;28;20044;-73
2022/08/09 03:16:26;;;;;;;6.07;5.47;;;;;;;;;;5052130;28;20024;-73
2022/08/09 03:18:51;;;;;;;6.45;5.85;;;;;;;;;;5051367;28;20056;-73
2022/08/09 03:21:18;;;;;;;6.82;6.13;;;;;;;;;;5050417;28;20449;-75
2022/08/09 03:23:45;;;;;;;6.63;6.03;;;;;;;;;;5053033;28;20078;-74
2022/08/09 03:26:13;;;;;;;10.98;5.60;;;;;;;;;;5049190;28;20028;-72
2022/08/09 03:28:39;;;;;;;7.85;5.45;;;;;;;;;;5049036;28;20021;-71
2022/08/09 03:31:05;;;;;;;8.55;6.25;;;;;;;;;;5032122;28;20032;-74
2022/08/09 03:33:30;;;;;;;8.32;6.03;;;;;;;;;;5052245;28;20020;-72
2022/08/09 03:35:56;;;;;;;7.38;5.72;;;;;;;;;;5048314;28;20033;-75
2022/08/09 03:38:21;;;;;;;6.57;5.80;;;;;;;;;;5052704;28;20520;-72
2022/08/09 03:40:47;;;;;;;8.30;6.82;;;;;;;;;;5052848;28;20144;-72
2022/08/09 03:43:12;;;;;;;5.95;5.45;;;;;;;;;;5037538;28;20036;-72
2022/08/09 03:45:37;;;;;;;7.15;5.95;;;;;;;;;;5052438;28;20128;-75
2022/08/09 03:48:03;;;;;;;6.63;5.60;;;;;;;;;;5055437;28;20340;-72
2022/08/09 03:50:28;;;;;;;7.40;6.80;;;;;;;;;;5053910;28;20029;-75
2022/08/09 03:52:56;;;;;;;6.68;6.07;;;;;;;;;;5052660;28;20032;-71
2022/08/09 03:55:22;;;;;;;6.53;5.82;;;;;;;;;;5054205;28;20085;-72
2022/08/09 03:57:49;;;;;;;6.75;5.55;;;;;;;;;;5049859;28;20020;-73
2022/08/09 04:00:15;;;;;;;6.50;5.70;;;;;;;;;;5051330;28;20021;-75
2022/08/09 04:02:42;;;;;;;6.80;6.13;;;;;;;;;;5045572;28;20404;-72
2022/08/09 04:05:08;;;;;;;13.85;6.22;;;;;;;;;;5044535;28;20071;-72
2022/08/09 04:07:33;;;;;;;6.70;6.05;;;;;;;;;;5050696;28;20060;-71
2022/08/09 04:09:59;;;;;;;7.13;6.43;;;;;;;;;;5050263;28;20055;-72
2022/08/09 04:12:34;;;;;;;7.43;6.28;;;;;;;;;;5046959;28;20467;-73
2022/08/09 04:15:00;;;;;;;6.65;6.05;;;;;;;;;;5045235;28;20033;-72
2022/08/09 04:17:26;;;;;;;7.35;6.68;;;;;;;;;;5044975;28;20090;-73
2022/08/09 04:19:51;;;;;;;6.75;6.15;;;;;;;;;;5044602;28;20024;-74
2022/08/09 04:22:17;;;;;;;6.60;6.00;;;;;;;;;;5047172;28;20027;-74
2022/08/09 04:24:42;;;;;;;9.93;6.20;;;;;;;;;;5046374;28;20063;-73
2022/08/09 04:27:08;;;;;;;25.33;6.57;;;;;;;;;;5054432;28;20439;-73
2022/08/09 04:29:33;;;;;;;14.70;6.78;;;;;;;;;;5056563;28;20029;-72
2022/08/09 04:31:59;;;;;;;12.40;6.32;;;;;;;;;;5056000;28;20028;-74
2022/08/09 04:34:24;;;;;;;6.68;5.90;;;;;;;;;;5056017;28;20082;-75
2022/08/09 04:36:49;;;;;;;12.20;5.95;;;;;;;;;;5050242;28;20162;-73
2022/08/09 04:39:15;;;;;;;8.23;6.13;;;;;;;;;;5053547;28;20032;-73
2022/08/09 04:41:40;;;;;;;8.55;6.03;;;;;;;;;;5051688;28;20383;-73
2022/08/09 04:44:10;;;;;;;6.57;6.00;;;;;;;;;;5051156;28;20328;-73
2022/08/09 04:46:36;;;;;;;9.57;6.57;;;;;;;;;;5052862;28;20028;-73
2022/08/09 04:49:02;;;;;;;7.50;6.65;;;;;;;;;;5057761;28;20050;-72
2022/08/09 04:51:27;;;;;;;6.30;5.72;;;;;;;;;;5055952;28;20435;-72
2022/08/09 04:53:52;;;;;;;7.53;6.78;;;;;;;;;;5055147;28;20828;-72
2022/08/09 04:56:18;;;;;;;8.55;6.97;;;;;;;;;;5055994;28;20039;-72
2022/08/09 04:58:43;;;;;;;8.80;6.65;;;;;;;;;;5057091;28;20073;-74
2022/08/09 05:01:08;;;;;;;8.02;6.65;;;;;;;;;;5055526;28;20044;-73
2022/08/09 05:03:34;;;;;;;7.32;6.68;;;;;;;;;;5053608;28;20024;-72
2022/08/09 05:05:59;;;;;;;6.47;5.82;;;;;;;;;;5045843;28;20073;-75
2022/08/09 05:08:25;;;;;;;6.63;6.03;;;;;;;;;;5051782;28;20452;-72
2022/08/09 05:10:50;;;;;;;9.00;7.70;;;;;;;;;;5056973;28;20059;-73
2022/08/09 05:13:15;;;;;;;11.60;6.63;;;;;;;;;;5055436;28;20439;-72
2022/08/09 05:15:41;;;;;;;8.40;7.25;;;;;;;;;;5055864;28;20024;-73
2022/08/09 05:18:07;;;;;;;7.45;6.60;;;;;;;;;;5055554;28;20270;-72
2022/08/09 05:20:32;;;;;;;7.07;6.38;;;;;;;;;;5046392;28;20058;-73
2022/08/09 05:22:58;;;;;;;8.25;7.43;;;;;;;;;;5046261;28;20033;-73
2022/08/09 05:25:23;;;;;;;8.90;7.38;;;;;;;;;;5045604;28;20044;-72
2022/08/09 05:27:52;;;;;;;10.48;7.68;;;;;;;;;;5046481;28;20085;-72
2022/08/09 05:30:17;;;;;;;8.38;7.57;;;;;;;;;;5050121;28;20060;-74
2022/08/09 05:32:45;;;;;;;9.05;7.80;;;;;;;;;;5051331;28;20048;-74
2022/08/09 05:35:11;;;;;;;8.93;7.72;;;;;;;;;;5048212;28;20040;-72
2022/08/09 05:37:36;;;;;;;7.28;6.57;;;;;;;;;;5052417;28;20255;-75
2022/08/09 05:40:03;;;;;;;8.25;7.45;;;;;;;;;;5046608;28;20451;-73
2022/08/09 05:42:28;;;;;;;7.50;6.82;;;;;;;;;;5045319;28;20020;-72
2022/08/09 05:44:53;;;;;;;8.95;7.57;;;;;;;;;;5045797;28;20044;-74
2022/08/09 05:47:19;;;;;;;8.85;6.68;;;;;;;;;;5045413;28;20034;-72
2022/08/09 05:49:45;;;;;;;6.75;6.20;;;;;;;;;;5054974;28;20035;-73
2022/08/09 05:52:10;;;;;;;7.65;6.60;;;;;;;;;;5052637;28;20405;-74
2022/08/09 05:54:35;;;;;;;8.77;7.07;;;;;;;;;;5036007;28;20043;-71
2022/08/09 05:57:01;;;;;;;6.70;6.10;;;;;;;;;;5053643;28;20041;-71
2022/08/09 05:59:26;;;;;;;6.55;5.95;;;;;;;;;;5043738;28;20440;-71
2022/08/09 06:01:51;;;;;;;6.15;5.55;;;;;;;;;;5045081;28;20028;-73
2022/08/09 06:04:17;;;;;;;7.35;6.72;;;;;;;;;;5044799;28;20025;-71
2022/08/09 06:06:42;;;;;;;6.43;5.82;;;;;;;;;;5044108;28;20033;-73
2022/08/09 06:09:07;;;;;;;6.70;5.75;;;;;;;;;;5050168;28;20387;-71
2022/08/09 06:11:33;;;;;;;7.13;6.43;;;;;;;;;;5046479;28;20024;-73
2022/08/09 06:13:58;;;;;;;8.40;5.95;;;;;;;;;;5053280;28;20029;-75
2022/08/09 06:16:23;;;;;;;6.60;5.93;;;;;;;;;;5054618;28;20100;-76
2022/08/09 06:18:49;;;;;;;7.50;6.72;;;;;;;;;;5054303;28;20025;-75
2022/08/09 06:21:14;;;;;;;6.78;5.85;;;;;;;;;;5056270;28;20117;-76
2022/08/09 06:23:40;;;;;;;6.50;5.90;;;;;;;;;;5047051;28;20717;-72
2022/08/09 06:26:06;;;;;;;7.25;6.40;;;;;;;;;;5046184;28;20036;-73
2022/08/09 06:28:31;;;;;;;6.25;5.65;;;;;;;;;;5047443;28;20053;-76
2022/08/09 06:30:56;;;;;;;9.75;5.75;;;;;;;;;;5043742;28;20434;-73
2022/08/09 06:33:22;;;;;;;6.32;5.65;;;;;;;;;;5044135;28;20029;-73
2022/08/09 06:35:47;;;;;;;6.45;5.85;;;;;;;;;;5041839;28;20032;-75
2022/08/09 06:38:12;;;;;;;6.28;5.72;;;;;;;;;;5040901;28;20024;-74
2022/08/09 06:40:38;;;;;;;7.07;6.18;;;;;;;;;;5044555;28;20447;-75
2022/08/09 06:43:03;;;;;;;7.05;6.00;;;;;;;;;;5046910;28;20427;-73
2022/08/09 06:45:29;;;;;;;7.18;5.65;;;;;;;;;;5044253;28;20355;-72
2022/08/09 06:47:54;;;;;;;6.18;4.95;;;;;;;;;;5053392;28;20725;-72
2022/08/09 06:50:19;;;;;;;6.60;5.75;;;;;;;;;;5052161;28;20028;-73
2022/08/09 06:52:45;;;;;;;6.40;5.35;;;;;;;;;;5051276;28;20434;-71
2022/08/09 06:55:11;;;;;;;5.80;5.35;;;;;;;;;;5054963;28;20382;-72
2022/08/09 06:57:37;;;;;;;6.28;5.72;;;;;;;;;;5038833;28;20029;-72
2022/08/09 07:00:03;;;;;;;7.03;5.55;;;;;;;;;;5042912;28;20036;-73
2022/08/09 07:02:28;;;;;;;7.97;5.38;;;;;;;;;;5049080;28;20090;-72
2022/08/09 07:04:53;;;;;;;6.43;5.82;;;;;;;;;;5033167;28;20035;-72
2022/08/09 07:07:19;;;;;;;6.25;5.50;;;;;;;;;;5046023;28;20028;-74
2022/08/09 07:09:44;;;;;;;5.80;5.30;;;;;;;;;;5040767;28;20024;-77
2022/08/09 07:12:10;;;;;;;5.47;4.97;;;;;;;;;;5041120;28;20111;-74
2022/08/09 07:14:35;;;;;;;6.05;5.43;;;;;;;;;;5052920;28;20029;-75
2022/08/09 07:17:00;;;;;;;7.15;5.40;;;;;;;;;;5044217;28;20037;-73
2022/08/09 07:19:26;;;;;;;9.30;5.28;;;;;;;;;;5041095;28;20028;-76
2022/08/09 07:21:51;;;;;;;4.82;4.43;;;;;;;;;;5037198;28;20038;-73
2022/08/09 07:24:16;;;;;;;4.35;3.95;;;;;;;;;;5045014;28;20029;-73
2022/08/09 07:26:42;;;;;;;5.85;5.13;;;;;;;;;;5039399;28;20036;-73
2022/08/09 07:29:07;;;;;;;5.55;4.20;;;;;;;;;;5040610;28;20028;-73
2022/08/09 07:31:33;;;;;;;7.28;5.13;;;;;;;;;;5040760;28;20024;-74
2022/08/09 07:33:58;;;;;;;5.97;4.88;;;;;;;;;;5026531;28;20024;-74
2022/08/09 07:36:23;;;;;;;4.72;4.32;;;;;;;;;;5045473;28;20091;-73
2022/08/09 07:38:49;;;;;;;3.80;3.50;;;;;;;;;;5047642;28;20029;-74
2022/08/09 07:41:14;;;;;;;3.88;3.53;;;;;;;;;;5045108;28;20531;-78
2022/08/09 07:43:40;;;;;;;6.43;3.55;;;;;;;;;;5045993;28;20416;-73
2022/08/09 07:46:07;;;;;;;3.47;3.17;;;;;;;;;;5043636;28;20123;-74
2022/08/09 07:48:32;;;;;;;7.57;4.03;;;;;;;;;;5042764;28;20113;-73
2022/08/09 07:50:58;;;;;;;3.78;3.50;;;;;;;;;;5044379;28;20056;-74
2022/08/09 07:53:24;;;;;;;6.13;4.03;;;;;;;;;;5041794;28;20023;-73
2022/08/09 07:55:49;;;;;;;3.78;3.20;;;;;;;;;;5043813;28;20033;-75
2022/08/09 07:58:14;;;;;;;3.72;3.40;;;;;;;;;;5047577;28;20032;-74
2022/08/09 08:00:41;;;;;;;4.22;3.17;;;;;;;;;;5045446;28;20035;-76
2022/08/09 08:03:07;;;;;;;4.45;3.63;;;;;;;;;;5023643;28;20036;-79
2022/08/09 08:05:32;;;;;;;4.35;3.88;;;;;;;;;;5051200;28;20059;-75
2022/08/09 08:07:58;;;;;;;3.80;3.25;;;;;;;;;;5047591;28;20017;-76
2022/08/09 08:10:23;;;;;;;3.28;3.03;;;;;;;;;;5055173;28;20032;-80
2022/08/09 08:12:49;;;;;;;2.88;2.67;;;;;;;;;;5055061;28;20033;-78
2022/08/09 08:15:16;;;;;;;5.75;3.50;;;;;;;;;;5034048;28;20036;-77
2022/08/09 08:17:42;;;;;;;3.95;3.38;;;;;;;;;;5056794;28;20056;-76
2022/08/09 08:20:07;;;;;;;3.45;3.15;;;;;;;;;;5044792;28;20066;-74
2022/08/09 08:22:33;;;;;;;3.25;2.95;;;;;;;;;;5048780;28;20101;-73
2022/08/09 08:24:58;;;;;;;3.75;3.33;;;;;;;;;;5047955;28;20058;-78
2022/08/09 08:27:24;;;;;;;4.28;2.75;;;;;;;;;;5040706;28;20021;-77
2022/08/09 08:29:50;;;;;;;7.28;3.42;;;;;;;;;;5041082;28;20029;-76
2022/08/09 08:32:16;;;;;;;7.57;3.15;;;;;;;;;;5043083;28;20100;-74
2022/08/09 08:34:41;;;;;;;3.45;3.15;;;;;;;;;;5047961;28;20432;-72
2022/08/09 08:37:06;;;;;;;3.72;3.30;;;;;;;;;;5045644;28;20029;-73
2022/08/09 08:39:32;;;;;;;3.03;2.67;;;;;;;;;;5055131;28;20028;-74
2022/08/09 08:41:57;;;;;;;5.95;2.75;;;;;;;;;;5052983;28;20041;-76
2022/08/09 08:44:24;;;;;;;5.28;3.33;;;;;;;;;;5041334;28;20044;-73
2022/08/09 08:46:49;;;;;;;3.20;2.90;;;;;;;;;;5041278;28;20027;-78
2022/08/09 08:49:15;;;;;;;3.88;3.38;;;;;;;;;;5052866;28;20029;-75
2022/08/09 08:51:40;;;;;;;6.32;3.60;;;;;;;;;;5054726;28;20024;-76
2022/08/09 08:54:06;;;;;;;3.47;3.17;;;;;;;;;;5057172;28;20363;-74
2022/08/09 08:56:33;;;;;;;3.10;2.85;;;;;;;;;;5049909;28;20024;-75
2022/08/09 08:59:00;;;;;;;3.35;3.00;;;;;;;;;;5045359;28;20023;-77
2022/08/09 09:01:25;;;;;;;5.65;3.08;;;;;;;;;;5047465;28;20085;-75
2022/08/09 09:03:50;;;;;;;4.80;3.33;;;;;;;;;;5045203;28;20385;-76
2022/08/09 09:06:16;;;;;;;3.30;3.10;;;;;;;;;;5044688;28;20442;-76
2022/08/09 09:08:44;;;;;;;3.97;3.20;;;;;;;;;;5055150;28;20029;-74
2022/08/09 09:11:10;;;;;;;4.40;3.20;;;;;;;;;;5059834;28;20028;-78
2022/08/09 09:13:36;;;;;;;3.15;2.95;;;;;;;;;;5052760;28;20052;-78
2022/08/09 09:16:02;;;;;;;7.30;3.40;;;;;;;;;;5053079;28;20032;-76
2022/08/09 09:18:27;;;;;;;3.50;3.20;;;;;;;;;;5058189;28;20328;-76
2022/08/09 09:20:53;;;;;;;3.72;3.03;;;;;;;;;;5047594;28;20024;-78
2022/08/09 09:23:38;;;;;;;4.07;3.25;;;;;;;;;;5059305;28;20028;-75
2022/08/09 09:26:03;;;;;;;4.10;3.10;;;;;;;;;;5058943;28;20037;-75
2022/08/09 09:28:32;;;;;;;3.58;2.75;;;;;;;;;;5054581;28;20021;-78
2022/08/09 09:31:00;;;;;;;3.88;3.15;;;;;;;;;;5046584;28;20016;-77
2022/08/09 09:33:33;;;;;;;9.48;3.50;;;;;;;;;;5049766;28;20340;-78
2022/08/09 09:36:00;;;;;;;2.92;2.67;;;;;;;;;;5040162;28;20037;-80
2022/08/09 09:38:44;;;;;;;5.07;2.83;;;;;;;;;;5043901;28;20090;-76
2022/08/09 09:41:30;;;;;;;4.07;3.35;;;;;;;;;;5043008;28;20036;-74
2022/08/09 09:43:59;;;;;;;4.05;3.35;;;;;;;;;;5047500;28;20037;-78
2022/08/09 09:46:28;;;;;;;10.18;2.95;;;;;;;;;;5044971;28;20029;-76
2022/08/09 09:48:57;;;;;;;3.92;3.28;;;;;;;;;;5058537;28;20047;-75
2022/08/09 09:51:23;;;;;;;4.05;3.03;;;;;;;;;;5054735;28;20447;-74
2022/08/09 09:54:04;;;;;;;4.22;3.10;;;;;;;;;;5042891;28;20024;-74
2022/08/09 09:56:31;;;;;;;3.22;2.92;;;;;;;;;;5042635;28;20109;-76
2022/08/09 09:58:56;;;;;;;5.53;3.00;;;;;;;;;;5044288;28;20355;-74
2022/08/09 10:01:22;;;;;;;2.88;2.65;;;;;;;;;;5044044;28;20467;-75
2022/08/09 10:03:49;;;;;;;3.40;3.10;;;;;;;;;;5040363;28;20036;-74
2022/08/09 10:06:14;;;;;;;4.65;3.03;;;;;;;;;;5043673;28;20039;-76
2022/08/09 10:08:41;;;;;;;5.57;2.97;;;;;;;;;;5047507;28;20032;-75
2022/08/09 10:11:14;;;;;;;3.38;3.15;;;;;;;;;;5042716;28;20031;-74
2022/08/09 10:13:40;;;;;;;3.50;3.08;;;;;;;;;;5053778;28;20074;-76
2022/08/09 10:16:06;;;;;;;3.95;2.85;;;;;;;;;;5046995;28;20125;-74
2022/08/09 10:18:32;;;;;;;4.57;3.15;;;;;;;;;;5042403;28;20020;-77
2022/08/09 10:21:07;;;;;;;3.40;3.08;;;;;;;;;;5049769;28;20359;-74
2022/08/09 10:23:33;;;;;;;3.28;2.97;;;;;;;;;;5041833;28;20044;-75
2022/08/09 10:26:00;;;;;;;3.35;3.00;;;;;;;;;;5042156;28;20332;-75
2022/08/09 10:28:25;;;;;;;5.43;3.10;;;;;;;;;;5042737;28;20416;-74
2022/08/09 10:30:51;;;;;;;2.95;2.75;;;;;;;;;;5039784;28;20175;-76
2022/08/09 10:33:16;;;;;;;4.70;3.75;;;;;;;;;;5042782;28;20070;-75
2022/08/09 10:35:42;;;;;;;4.72;3.28;;;;;;;;;;5042571;28;20746;-76
2022/08/09 10:38:07;;;;;;;6.97;3.47;;;;;;;;;;5047177;28;20043;-75
2022/08/09 10:40:34;;;;;;;3.53;3.20;;;;;;;;;;5049037;28;20049;-77
2022/08/09 10:42:59;;;;;;;4.38;3.47;;;;;;;;;;5049159;28;20032;-76
2022/08/09 10:45:28;;;;;;;4.72;3.40;;;;;;;;;;5042844;28;20055;-76
2022/08/09 10:48:09;;;;;;;3.10;2.67;;;;;;;;;;5042904;28;20032;-76
2022/08/09 10:53:31;;;;;;;3.10;2.83;;;;;;;;;;5044087;28;20185;-76
2022/08/09 10:56:16;;;;;;;3.20;2.80;;;;;;;;;;5043140;28;20510;-75
2022/08/09 10:58:41;;;;;;;3.47;3.00;;;;;;;;;;5041971;28;20448;-74
2022/08/09 11:01:27;;;;;;;3.60;3.05;;;;;;;;;;5042497;28;20024;-76
2022/08/09 11:04:07;;;;;;;3.60;2.55;;;;;;;;;;5056603;28;20059;-72
2022/08/09 11:06:35;;;;;;;3.40;3.10;;;;;;;;;;5046310;28;20071;-72
2022/08/09 11:09:01;;;;;;;2.72;2.53;;;;;;;;;;5043940;28;20435;-72
2022/08/09 11:11:46;;;;;;;4.43;3.72;;;;;;;;;;5042641;28;20051;-73
2022/08/09 11:14:28;;;;;;;2.95;2.60;;;;;;;;;;5042330;28;20028;-73
2022/08/09 11:16:54;;;;;;;3.10;2.47;;;;;;;;;;5044676;28;20031;-75
2022/08/09 11:19:40;;;;;;;3.90;2.80;;;;;;;;;;5043288;28;20111;-76
2022/08/09 11:22:07;;;;;;;3.10;2.90;;;;;;;;;;5039912;28;20021;-71
2022/08/09 11:24:50;;;;;;;3.20;3.00;;;;;;;;;;5037790;28;20456;-73
2022/08/09 11:27:33;;;;;;;3.25;2.95;;;;;;;;;;5034229;28;20100;-75
2022/08/09 11:29:58;;;;;;;3.22;2.92;;;;;;;;;;5040715;28;20040;-71
2022/08/09 11:32:40;;;;;;;7.22;2.90;;;;;;;;;;5042390;28;20329;-72
2022/08/09 11:35:07;;;;;;;5.38;3.10;;;;;;;;;;5034909;28;20367;-73
2022/08/09 11:37:33;;;;;;;7.65;4.15;;;;;;;;;;5040769;28;20503;-74
2022/08/09 11:40:00;;;;;;;4.18;3.42;;;;;;;;;;5037866;28;20028;-73
2022/08/09 11:42:48;;;;;;;4.95;3.65;;;;;;;;;;5037441;28;20574;-75
2022/08/09 11:45:24;;;;;;;4.78;3.50;;;;;;;;;;5032233;28;20048;-74
2022/08/09 11:47:51;;;;;;;3.50;3.00;;;;;;;;;;5039650;28;20021;-74
2022/08/09 11:50:17;;;;;;;4.82;2.95;;;;;;;;;;5021400;28;20025;-76
2022/08/09 11:52:58;;;;;;;2.88;2.58;;;;;;;;;;5040220;28;20024;-73
2022/08/09 11:55:37;;;;;;;3.38;2.80;;;;;;;;;;5037183;28;20032;-75
2022/08/09 11:58:14;;;;;;;3.97;3.00;;;;;;;;;;5040357;28;20028;-75
2022/08/09 12:01:05;;;;;;;5.78;2.88;;;;;;;;;;5041903;28;20484;-77
2022/08/09 12:03:30;;;;;;;6.85;3.20;;;;;;;;;;5039576;28;20032;-76
2022/08/09 12:05:57;;;;;;;4.50;2.95;;;;;;;;;;5034660;28;20086;-75
2022/08/09 12:08:23;;;;;;;3.35;2.60;;;;;;;;;;5034521;28;20505;-75
2022/08/09 12:10:50;;;;;;;3.15;2.80;;;;;;;;;;5038621;28;20065;-75
2022/08/09 12:13:32;;;;;;;4.53;2.65;;;;;;;;;;5031942;28;20398;-75
2022/08/09 12:16:02;;;;;;;3.85;2.70;;;;;;;;;;5046962;28;20025;-73
2022/08/09 12:18:27;;;;;;;3.10;2.72;;;;;;;;;;5050078;28;20036;-72
2022/08/09 12:20:53;;;;;;;3.40;2.60;;;;;;;;;;5055522;28;20717;-75
2022/08/09 12:23:18;;;;;;;3.30;2.67;;;;;;;;;;5050109;28;20496;-73
2022/08/09 12:25:47;;;;;;;5.20;2.80;;;;;;;;;;5049785;28;20036;-73
2022/08/09 12:28:15;;;;;;;8.50;3.30;;;;;;;;;;5048844;28;20029;-75
2022/08/09 12:30:41;;;;;;;4.03;3.47;;;;;;;;;;5043666;28;20089;-73
2022/08/09 12:33:07;;;;;;;7.25;3.72;;;;;;;;;;5048482;28;20024;-72
2022/08/09 12:35:32;;;;;;;16.58;3.40;;;;;;;;;;5046603;28;20102;-74
2022/08/09 12:37:58;;;;;;;2.83;2.63;;;;;;;;;;5045327;28;20070;-75
2022/08/09 12:40:26;;;;;;;3.05;2.80;;;;;;;;;;5046425;28;20040;-76
2022/08/09 12:42:52;;;;;;;4.05;3.05;;;;;;;;;;5045918;28;20079;-74
2022/08/09 12:45:18;;;;;;;3.55;2.90;;;;;;;;;;5046184;28;20078;-73
2022/08/09 12:47:44;;;;;;;5.82;2.88;;;;;;;;;;5039023;28;20460;-78
2022/08/09 12:50:16;;;;;;;6.18;3.45;;;;;;;;;;5041770;28;20028;-72
2022/08/09 12:52:42;;;;;;;3.28;2.97;;;;;;;;;;5053875;28;20028;-73
2022/08/09 12:55:09;;;;;;;3.40;2.80;;;;;;;;;;5054584;28;20040;-74
2022/08/09 12:57:37;;;;;;;2.90;2.70;;;;;;;;;;5060672;28;20329;-77
2022/08/09 13:00:12;;;;;;;3.53;3.10;;;;;;;;;;5057566;28;20099;-73
2022/08/09 13:02:49;;;;;;;5.10;2.80;;;;;;;;;;5057183;28;20036;-74
2022/08/09 13:05:16;;;;;;;3.30;2.95;;;;;;;;;;5059439;28;20077;-80
2022/08/09 13:07:42;;;;;;;3.20;2.90;;;;;;;;;;5052748;28;20051;-79
2022/08/09 13:10:07;;;;;;;5.32;3.45;;;;;;;;;;5051267;28;20075;-78
2022/08/09 13:12:33;;;;;;;4.10;2.63;;;;;;;;;;5048965;28;20036;-77
2022/08/09 13:15:05;;;;;;;2.90;2.63;;;;;;;;;;5052959;28;21077;-86
2022/08/09 13:17:30;;;;;;;5.22;2.83;;;;;;;;;;5055714;28;20039;-79
2022/08/09 13:19:56;;;;;;;3.17;2.83;;;;;;;;;;5032004;28;20072;-77
2022/08/09 13:22:23;;;;;;;3.10;2.83;;;;;;;;;;5045901;28;20040;-75
2022/08/09 13:24:58;;;;;;;4.30;3.80;;;;;;;;;;5044318;28;20040;-75
2022/08/09 13:27:30;;;;;;;5.57;5.07;;;;;;;;;;5045296;28;20055;-76
2022/08/09 13:30:00;;;;;;;7.40;5.45;;;;;;;;;;5046034;28;20432;-78
2022/08/09 13:32:42;;;;;;;6.20;4.00;;;;;;;;;;5041464;28;20059;-75
2022/08/09 13:35:09;;;;;;;3.97;3.60;;;;;;;;;;5044097;28;20028;-74
2022/08/09 13:37:34;;;;;;;3.42;2.80;;;;;;;;;;5039945;28;20039;-76
2022/08/09 13:39:59;;;;;;;3.47;3.17;;;;;;;;;;5044123;28;20347;-74
2022/08/09 13:42:25;;;;;;;4.10;3.00;;;;;;;;;;5059355;28;20072;-81
2022/08/09 13:44:50;;;;;;;3.95;2.83;;;;;;;;;;5055640;28;20140;-84
2022/08/09 13:47:16;;;;;;;4.32;3.00;;;;;;;;;;5052505;28;20024;-78
2022/08/09 13:49:42;;;;;;;3.33;3.00;;;;;;;;;;5049783;28;20892;-82
2022/08/09 13:52:07;;;;;;;4.13;3.17;;;;;;;;;;5053851;28;20027;-79
2022/08/09 13:54:33;;;;;;;2.72;2.53;;;;;;;;;;5054841;28;20037;-76
2022/08/09 13:56:58;;;;;;;3.88;2.92;;;;;;;;;;5051963;28;20025;-77
2022/08/09 13:59:23;;;;;;;5.40;3.00;;;;;;;;;;5049203;28;20025;-76
2022/08/09 14:01:49;;;;;;;3.10;2.80;;;;;;;;;;5051373;28;20101;-80
2022/08/09 14:04:15;;;;;;;3.75;3.42;;;;;;;;;;5048599;28;20036;-78
2022/08/09 14:06:40;;;;;;;4.25;3.28;;;;;;;;;;5040670;28;20719;-80
2022/08/09 14:09:06;;;;;;;3.10;2.80;;;;;;;;;;5040610;28;20063;-76
2022/08/09 14:11:31;;;;;;;4.28;3.00;;;;;;;;;;5053734;28;20024;-78
2022/08/09 14:13:56;;;;;;;3.50;2.85;;;;;;;;;;5044365;28;20417;-78
2022/08/09 14:16:22;;;;;;;3.42;2.50;;;;;;;;;;5040257;28;20071;-78
2022/08/09 14:18:49;;;;;;;4.00;2.83;;;;;;;;;;5026131;28;20021;-76
2022/08/09 14:21:18;;;;;;;3.13;2.83;;;;;;;;;;5040819;28;20033;-79
2022/08/09 14:23:44;;;;;;;3.03;2.83;;;;;;;;;;5045462;28;20057;-76
2022/08/09 14:26:10;;;;;;;3.08;2.78;;;;;;;;;;5041173;28;20124;-77
2022/08/09 14:28:36;;;;;;;5.15;3.08;;;;;;;;;;5040907;28;20048;-75
2022/08/09 14:31:01;;;;;;;3.28;2.92;;;;;;;;;;5042198;28;20052;-78
2022/08/09 14:33:26;;;;;;;3.83;2.70;;;;;;;;;;5037738;28;20025;-76
2022/08/09 14:35:52;;;;;;;3.42;3.13;;;;;;;;;;5036512;28;20029;-77
2022/08/09 14:38:17;;;;;;;4.18;3.05;;;;;;;;;;5042682;28;20029;-75
2022/08/09 14:40:42;;;;;;;2.83;2.38;;;;;;;;;;5042768;28;20045;-77
2022/08/09 14:43:08;;;;;;;2.42;2.33;;;;;;;;;;5045159;28;22490;-77
2022/08/09 14:45:33;;;;;;;5.05;2.95;;;;;;;;;;5047477;28;20356;-77
2022/08/09 14:47:58;;;;;;;2.72;2.53;;;;;;;;;;5046424;28;20089;-76